Auburn, Iowa
Current Conditions -  °F | °C
As of 8:55 AM on Sunday 21 Dec 2014 (Local Time) from KCIN Reporting Station
Haze Haze  
Wind Chill: 28°   Ceiling: 400
Heat Index: 37°   Visibility: 2mi
Dew Point: 37°   Wind: 17mph
Humidity: 100%   Direction: 190°S
Pressure: 29.87"   Gusts: 23mph
Location:  42.25°N, 94.88°W
Report Text: KCIN 211455Z AUTO 19015G20KT 2SM BR OVC004 03/03 A2987 RMK AO2
Loading
Personal Weather Stations






























Interactive Weather Map New forecast layout! Learn more

10-Day Weather Forecast

Advertisements
Track Severe Weather on mobile